Time;durP1;ratioP1;P1;durP2;ratioP2;P2;SDS_P1;SDS_P2;PMS_P1;PMS_P2;Temp;Humidity;BMP_temperature;BMP_pressure;BME280_temperature;BME280_humidity;BME280_pressure;Samples;Min_cycle;Max_cycle;Signal;HPM_P1;HPM_P2
2021/07/27 00:01:43;;;;;;;8.40;2.90;;;;;;;22.61;65.17;100700.48;1760297;80;20940;-61
2021/07/27 00:04:10;;;;;;;8.63;2.93;;;;;;;22.56;65.21;100699.92;1757257;80;21529;-61
2021/07/27 00:06:36;;;;;;;6.00;3.23;;;;;;;22.56;65.18;100697.27;1760105;80;20943;-61
2021/07/27 00:09:03;;;;;;;7.13;3.23;;;;;;;22.54;64.92;100696.73;1757300;80;21662;-61
2021/07/27 00:11:30;;;;;;;5.60;2.93;;;;;;;22.28;67.10;100693.02;1762823;80;21797;-60
2021/07/27 00:13:57;;;;;;;9.23;2.97;;;;;;;22.15;67.74;100687.28;1760903;80;21086;-61
2021/07/27 00:16:24;;;;;;;7.00;3.10;;;;;;;22.37;66.34;100694.69;1765379;80;22223;-60
2021/07/27 00:18:51;;;;;;;7.80;3.20;;;;;;;22.33;66.23;100689.60;1762350;80;21505;-61
2021/07/27 00:21:17;;;;;;;8.27;3.67;;;;;;;22.25;66.94;100696.70;1762471;80;21091;-60
2021/07/27 00:23:44;;;;;;;4.43;2.50;;;;;;;22.27;66.14;100683.42;1770153;80;21043;-60
2021/07/27 00:26:13;;;;;;;8.60;3.17;;;;;;;22.34;65.76;100690.67;1764428;80;21062;-61
2021/07/27 00:28:41;;;;;;;6.33;3.13;;;;;;;22.33;65.34;100689.60;1760653;80;21154;-61
2021/07/27 00:31:16;;;;;;;7.77;3.03;;;;;;;22.07;68.04;100688.49;1769961;80;20985;-61
2021/07/27 00:33:44;;;;;;;5.23;2.73;;;;;;;21.81;68.35;100683.41;1758759;80;21057;-61
2021/07/27 00:36:11;;;;;;;7.73;2.97;;;;;;;21.93;67.90;100684.08;1782864;80;21792;-61
2021/07/27 00:38:38;;;;;;;9.67;3.13;;;;;;;21.96;68.15;100688.90;1781933;80;21498;-60
2021/07/27 00:41:05;;;;;;;7.50;3.43;;;;;;;21.86;68.96;100683.49;1786250;80;22388;-60
2021/07/27 00:43:31;;;;;;;6.13;3.17;;;;;;;21.86;68.64;100686.14;1776339;80;21770;-60
2021/07/27 00:45:58;;;;;;;6.23;2.97;;;;;;;21.87;68.46;100679.78;1777510;80;21070;-61
2021/07/27 00:48:24;;;;;;;6.27;2.90;;;;;;;22.15;66.48;100684.09;1777943;80;21090;-61
2021/07/27 00:50:52;;;;;;;8.40;2.80;;;;;;;22.20;64.26;100688.16;1783588;80;21090;-61
2021/07/27 00:53:19;;;;;;;9.77;3.60;;;;;;;22.20;64.37;100687.33;1786861;80;21112;-60
2021/07/27 00:55:48;;;;;;;5.50;2.67;;;;;;;22.10;65.63;100691.45;1758153;80;22320;-61
2021/07/27 00:58:15;;;;;;;8.33;3.10;;;;;;;22.05;66.11;100693.27;1783879;80;21153;-61
2021/07/27 01:00:44;;;;;;;10.40;3.47;;;;;;;22.01;67.02;100695.61;1785487;80;21074;-61
2021/07/27 01:03:12;;;;;;;5.53;2.80;;;;;;;21.97;67.08;100695.83;1783537;80;20951;-61
2021/07/27 01:05:39;;;;;;;6.47;3.30;;;;;;;21.92;67.69;100696.28;1756744;80;22325;-61
2021/07/27 01:08:06;;;;;;;6.87;3.37;;;;;;;21.81;67.89;100698.00;1784321;80;21006;-61
2021/07/27 01:10:33;;;;;;;4.53;2.60;;;;;;;21.79;69.28;100694.81;1785866;80;20959;-60
2021/07/27 01:13:01;;;;;;;5.30;3.17;;;;;;;21.74;69.67;100693.40;1773700;80;21098;-61
2021/07/27 01:15:28;;;;;;;5.33;2.90;;;;;;;21.69;70.68;100698.13;1768373;80;21566;-61
2021/07/27 01:18:03;;;;;;;4.70;2.67;;;;;;;21.67;71.13;100704.72;1764316;80;21164;-61
2021/07/27 01:20:46;;;;;;;;;;;;;;;21.59;72.35;100700.14;1774179;80;20928;-60
2021/07/27 01:39:30;;;;;;;6.17;2.73;;;;;;;21.26;75.50;100706.27;1768537;80;21463;-59
2021/07/27 01:44:33;;;;;;;6.13;2.90;;;;;;;21.23;75.01;100706.74;1767050;80;21154;-60
2021/07/27 01:46:59;;;;;;;5.00;2.73;;;;;;;21.18;75.05;100707.20;1758858;80;20889;-59
2021/07/27 01:49:26;;;;;;;7.20;2.37;;;;;;;21.16;75.12;100702.13;1769417;80;20972;-60
2021/07/27 01:51:53;;;;;;;6.33;2.47;;;;;;;21.17;76.02;100710.88;1762882;80;21580;-60
2021/07/27 01:54:29;;;;;;;4.63;2.60;;;;;;;21.10;75.79;100711.86;1767826;80;20944;-60
2021/07/27 01:56:49;;;;;;;5.83;2.87;;;;;;;21.07;76.39;100718.16;1762419;80;21215;-60
2021/07/27 01:59:16;;;;;;;9.57;2.77;;;;;;;21.07;77.22;100714.98;1758763;80;21654;-60
2021/07/27 02:01:43;;;;;;;6.77;2.70;;;;;;;21.07;77.36;100718.97;1766703;80;21061;-60
2021/07/27 02:04:09;;;;;;;6.40;2.50;;;;;;;21.11;77.59;100716.11;1765291;80;21588;-60
2021/07/27 02:06:40;;;;;;;5.33;2.60;;;;;;;21.04;77.94;100718.12;1765421;80;21149;-60
2021/07/27 02:09:08;;;;;;;5.72;2.55;;;;;;;20.99;79.49;100714.07;1765601;80;21191;-60
2021/07/27 02:11:41;;;;;;;4.20;2.63;;;;;;;21.01;79.44;100713.81;1765281;80;21027;-60
2021/07/27 02:14:04;;;;;;;8.63;3.07;;;;;;;20.95;80.43;100713.44;1760960;80;20933;-60
2021/07/27 02:16:35;;;;;;;6.23;2.30;;;;;;;20.89;80.41;100714.70;1768752;80;20888;-60
2021/07/27 02:19:00;;;;;;;4.93;3.13;;;;;;;21.03;78.84;100703.27;1762917;80;21557;-60
2021/07/27 02:21:27;;;;;;;6.70;2.77;;;;;;;21.03;79.40;100702.47;1768932;80;21130;-60
2021/07/27 02:23:54;;;;;;;5.73;2.67;;;;;;;21.08;77.76;100703.33;1767313;80;21640;-60
2021/07/27 02:26:22;;;;;;;4.63;2.30;;;;;;;21.16;75.27;100710.60;1761230;80;20980;-60
2021/07/27 02:28:48;;;;;;;4.63;2.53;;;;;;;21.23;74.25;100712.57;1757418;80;22585;-60
2021/07/27 02:31:21;;;;;;;7.87;2.93;;;;;;;21.35;73.38;100711.98;1762283;80;21003;-59
2021/07/27 02:33:43;;;;;;;6.30;2.37;;;;;;;21.46;72.46;100711.61;1769098;80;21090;-60
2021/07/27 02:36:10;;;;;;;5.93;2.40;;;;;;;21.50;70.59;100712.72;1763305;80;20971;-60
2021/07/27 02:38:36;;;;;;;7.23;2.80;;;;;;;21.53;70.65;100713.57;1759986;80;21358;-60
2021/07/27 02:41:03;;;;;;;5.80;2.30;;;;;;;21.53;70.12;100718.87;1767343;80;20928;-60
2021/07/27 02:43:30;;;;;;;7.20;2.17;;;;;;;21.54;69.96;100716.49;1760194;80;21062;-60
2021/07/27 02:45:57;;;;;;;6.07;2.57;;;;;;;21.53;69.33;100719.67;1761843;80;21328;-60
2021/07/27 02:48:23;;;;;;;4.33;2.40;;;;;;;21.66;68.40;100711.08;1764828;80;20873;-60
2021/07/27 02:51:01;;;;;;;6.97;2.23;;;;;;;21.69;68.07;100711.92;1763460;80;21126;-60
2021/07/27 02:53:30;;;;;;;3.97;2.00;;;;;;;21.67;68.98;100707.37;1761554;80;20995;-60
2021/07/27 02:55:59;;;;;;;5.00;2.33;;;;;;;21.62;68.55;100710.77;1768807;80;22324;-60
2021/07/27 02:58:29;;;;;;;4.60;2.70;;;;;;;21.57;68.03;100723.44;1761622;80;22353;-60
2021/07/27 03:00:57;;;;;;;4.67;2.35;;;;;;;21.68;67.87;100720.41;1736992;80;21600;-60
2021/07/27 03:03:24;;;;;;;4.40;2.37;;;;;;;21.68;68.35;100716.95;1683773;82;21003;-61
2021/07/27 03:06:00;;;;;;;6.83;3.17;;;;;;;21.66;68.14;100717.71;1684263;82;22383;-60
2021/07/27 03:08:35;;;;;;;5.03;2.20;;;;;;;21.71;68.90;100717.27;1687423;82;21078;-59
2021/07/27 03:10:56;;;;;;;5.87;2.60;;;;;;;22.06;67.04;100715.58;1692258;82;23141;-61
2021/07/27 03:13:23;;;;;;;5.30;2.60;;;;;;;22.64;62.75;100717.79;1691257;82;20959;-60
2021/07/27 03:15:50;;;;;;;5.90;2.40;;;;;;;23.35;56.09;100721.05;1694919;82;21984;-60
2021/07/27 03:18:17;;;;;;;5.53;2.50;;;;;;;23.83;53.66;100713.89;1690477;82;21471;-61
2021/07/27 03:20:43;;;;;;;6.57;2.57;;;;;;;24.51;50.45;100721.30;1690893;82;21117;-60
2021/07/27 03:23:18;;;;;;;8.07;2.90;;;;;;;25.30;47.49;100715.17;1687682;82;21148;-60
2021/07/27 03:25:45;;;;;;;13.10;2.50;;;;;;;25.91;44.74;100717.70;1690090;82;21645;-60
2021/07/27 03:28:15;;;;;;;5.30;2.80;;;;;;;26.43;42.49;100712.31;1690564;82;21667;-60
2021/07/27 03:30:42;;;;;;;7.40;2.50;;;;;;;26.89;41.59;100712.53;1688845;82;21015;-60
2021/07/27 03:33:08;;;;;;;3.73;2.07;;;;;;;27.32;40.33;100716.19;1690769;82;21055;-60
2021/07/27 03:35:35;;;;;;;5.80;2.53;;;;;;;27.60;39.04;100709.72;1693153;82;21125;-61
2021/07/27 03:38:05;;;;;;;5.10;2.30;;;;;;;27.93;38.42;100717.94;1687243;82;21002;-60
2021/07/27 03:40:34;;;;;;;4.43;2.57;;;;;;;28.23;37.62;100711.36;1689642;83;21544;-60
2021/07/27 03:43:02;;;;;;;6.10;2.67;;;;;;;28.50;37.18;100705.36;1691220;82;21497;-60
2021/07/27 03:45:29;;;;;;;5.95;2.70;;;;;;;28.75;36.49;100714.34;1690411;82;22337;-60
2021/07/27 03:47:56;;;;;;;5.95;2.80;;;;;;;29.09;35.85;100711.90;1690731;82;21410;-60
2021/07/27 03:50:23;;;;;;;4.08;2.47;;;;;;;29.35;35.27;100716.25;1691065;82;21133;-60
2021/07/27 03:52:50;;;;;;;6.72;2.60;;;;;;;29.77;34.93;100708.45;1690603;82;21062;-60
2021/07/27 03:55:16;;;;;;;4.65;2.10;;;;;;;30.07;34.55;100707.56;1689725;82;21161;-60
2021/07/27 03:57:44;;;;;;;5.60;2.67;;;;;;;30.35;33.64;100706.17;1690646;82;21203;-60
2021/07/27 04:00:12;;;;;;;3.95;2.08;;;;;;;30.57;33.19;100698.64;1691706;82;22538;-60
2021/07/27 04:02:38;;;;;;;4.37;2.70;;;;;;;30.59;32.88;100701.28;1664656;82;21027;-59
2021/07/27 04:05:08;;;;;;;5.92;2.40;;;;;;;30.60;32.38;100705.55;1662156;84;20956;-60
2021/07/27 04:07:35;;;;;;;6.30;2.60;;;;;;;30.64;32.85;100709.21;1659690;84;21077;-59
2021/07/27 04:10:08;;;;;;;3.95;2.58;;;;;;;30.81;32.20;100717.20;1660699;85;21687;-61
2021/07/27 04:12:36;;;;;;;6.37;2.90;;;;;;;30.86;31.72;100710.34;1660385;84;21537;-60
2021/07/27 04:15:03;;;;;;;4.30;2.40;;;;;;;30.77;32.14;100708.39;1660063;84;21016;-62
2021/07/27 04:17:30;;;;;;;3.92;2.47;;;;;;;30.86;31.89;100704.39;1657851;84;21139;-61
2021/07/27 04:19:58;;;;;;;4.90;2.37;;;;;;;31.00;31.42;100715.09;1659654;84;21036;-61
2021/07/27 04:22:25;;;;;;;8.45;2.40;;;;;;;31.03;31.42;100713.12;1660990;84;20940;-60
2021/07/27 04:24:52;;;;;;;5.35;3.00;;;;;;;30.98;30.99;100710.55;1663629;84;21141;-59
2021/07/27 04:27:22;;;;;;;4.58;2.30;;;;;;;31.02;31.50;100722.29;1656560;84;21097;-61
2021/07/27 04:29:49;;;;;;;3.55;2.52;;;;;;;31.20;31.23;100715.89;1623429;86;22620;-61
2021/07/27 04:32:15;;;;;;;4.37;2.60;;;;;;;31.39;30.71;100718.92;1621645;86;21070;-60
2021/07/27 04:34:41;;;;;;;6.28;2.67;;;;;;;31.57;30.73;100723.27;1613379;87;21102;-61
2021/07/27 04:37:09;;;;;;;4.47;2.30;;;;;;;31.71;30.19;100724.50;1621537;86;22383;-61
2021/07/27 04:39:36;;;;;;;5.87;2.52;;;;;;;31.84;30.08;100734.91;1626293;86;21662;-60
2021/07/27 04:42:03;;;;;;;3.85;2.58;;;;;;;31.93;30.14;100728.99;1626496;87;21050;-61
2021/07/27 04:44:29;;;;;;;7.03;2.85;;;;;;;32.16;29.82;100733.16;1629490;87;21519;-60
2021/07/27 04:46:56;;;;;;;3.58;1.95;;;;;;;32.36;30.09;100731.73;1629602;87;21008;-60
2021/07/27 04:49:22;;;;;;;4.15;2.42;;;;;;;32.60;29.40;100726.41;1628375;87;21118;-61
2021/07/27 04:51:48;;;;;;;6.75;2.62;;;;;;;32.75;28.66;100726.47;1627285;87;21051;-60
2021/07/27 04:54:27;;;;;;;5.85;2.40;;;;;;;32.68;28.58;100726.95;1628536;87;20976;-61
2021/07/27 04:56:46;;;;;;;3.92;2.47;;;;;;;32.68;28.68;100723.69;1627153;87;21513;-60
2021/07/27 04:59:13;;;;;;;6.78;3.10;;;;;;;32.73;28.54;100724.63;1629313;87;21120;-61
2021/07/27 05:01:40;;;;;;;4.60;2.70;;;;;;;32.80;28.71;100718.98;1637508;85;21126;-61
2021/07/27 05:04:07;;;;;;;4.90;2.60;;;;;;;32.87;28.60;100722.55;1664128;85;21019;-61
2021/07/27 05:06:34;;;;;;;5.22;2.22;;;;;;;33.17;28.26;100721.52;1662088;85;20980;-60
2021/07/27 05:09:02;;;;;;;5.08;2.40;;;;;;;33.29;27.85;100712.72;1663999;85;21135;-61
2021/07/27 05:11:30;;;;;;;6.90;2.42;;;;;;;33.33;27.79;100712.87;1661801;85;20984;-61
2021/07/27 05:13:57;;;;;;;5.80;3.30;;;;;;;33.25;27.75;100712.35;1660765;85;21160;-61
2021/07/27 05:16:23;;;;;;;7.00;3.08;;;;;;;33.19;28.00;100710.41;1665377;85;21070;-61
2021/07/27 05:18:50;;;;;;;6.95;2.75;;;;;;;33.20;27.70;100703.09;1662683;85;21104;-61
2021/07/27 05:21:18;;;;;;;5.87;2.70;;;;;;;33.17;28.36;100708.57;1664990;85;21091;-61
2021/07/27 05:23:45;;;;;;;8.68;4.42;;;;;;;33.28;28.62;100709.80;1661236;85;21629;-62
2021/07/27 05:26:11;;;;;;;7.72;4.05;;;;;;;33.42;27.95;100714.98;1663628;85;21556;-62
2021/07/27 05:28:38;;;;;;;5.47;3.20;;;;;;;33.53;27.69;100710.03;1662049;85;20953;-62
2021/07/27 05:31:05;;;;;;;6.72;2.87;;;;;;;33.65;27.80;100708.20;1663736;85;21021;-62
2021/07/27 05:33:32;;;;;;;7.17;2.80;;;;;;;33.73;27.11;100713.88;1663182;85;21020;-62
2021/07/27 05:36:00;;;;;;;8.58;3.42;;;;;;;33.78;27.44;100710.41;1663506;85;21119;-62
2021/07/27 05:38:27;;;;;;;10.78;4.20;;;;;;;33.87;27.19;100711.72;1662172;85;21162;-62
2021/07/27 05:40:54;;;;;;;8.20;3.22;;;;;;;33.93;26.87;100709.60;1662988;85;21033;-62
2021/07/27 05:43:21;;;;;;;5.62;2.75;;;;;;;33.99;26.86;100703.70;1663781;85;21084;-62
2021/07/27 05:45:47;;;;;;;6.83;3.33;;;;;;;33.98;26.82;100699.42;1660776;85;21545;-63
2021/07/27 05:48:14;;;;;;;8.20;3.75;;;;;;;33.87;27.09;100701.70;1664416;85;21291;-62
2021/07/27 05:50:41;;;;;;;7.20;3.15;;;;;;;33.94;27.22;100702.50;1659791;85;21581;-62
2021/07/27 05:53:07;;;;;;;7.08;2.55;;;;;;;33.95;27.07;100701.40;1663313;85;20945;-62
2021/07/27 05:55:34;;;;;;;5.65;3.10;;;;;;;33.86;27.15;100702.80;1659005;85;21533;-62
2021/07/27 05:58:00;;;;;;;9.95;3.30;;;;;;;33.96;27.41;100702.19;1655053;85;21131;-63
2021/07/27 06:00:27;;;;;;;6.55;2.92;;;;;;;34.28;27.96;100704.72;1664125;85;21441;-63
2021/07/27 06:02:53;;;;;;;6.95;3.08;;;;;;;34.53;26.66;100698.88;1657088;85;21567;-62
2021/07/27 06:05:20;;;;;;;5.75;2.60;;;;;;;34.41;27.24;100702.88;1657713;86;20990;-62
2021/07/27 06:07:46;;;;;;;9.20;3.12;;;;;;;34.38;26.95;100699.70;1681794;82;21506;-62
2021/07/27 06:10:15;;;;;;;8.03;2.90;;;;;;;34.44;27.07;100692.71;1685787;82;22457;-62
2021/07/27 06:12:44;;;;;;;8.00;3.30;;;;;;;34.42;27.33;100701.74;1683247;82;21026;-62
2021/07/27 06:15:12;;;;;;;5.87;3.12;;;;;;;34.32;27.37;100693.46;1685468;82;20983;-62
2021/07/27 06:17:39;;;;;;;8.18;3.20;;;;;;;34.31;27.37;100699.44;1685427;82;21566;-62
2021/07/27 06:20:07;;;;;;;6.45;3.27;;;;;;;34.35;27.34;100696.30;1684137;82;21585;-62
2021/07/27 06:22:33;;;;;;;13.10;3.87;;;;;;;34.30;27.59;100697.86;1684695;82;21030;-62
2021/07/27 06:25:00;;;;;;;9.68;3.92;;;;;;;34.41;28.27;100692.83;1682837;82;21050;-64
2021/07/27 06:27:27;;;;;;;10.98;4.22;;;;;;;34.54;27.94;100708.57;1684180;82;21177;-63
2021/07/27 06:29:54;;;;;;;6.05;3.22;;;;;;;34.74;27.69;100704.22;1682062;82;20928;-63
2021/07/27 06:32:21;;;;;;;7.50;3.75;;;;;;;34.88;27.47;100693.87;1684239;82;21089;-63
2021/07/27 06:34:47;;;;;;;9.08;3.60;;;;;;;34.98;27.44;100698.86;1682267;82;21206;-63
2021/07/27 06:37:14;;;;;;;6.55;2.95;;;;;;;35.26;27.67;100690.08;1684474;82;21083;-63
2021/07/27 06:39:41;;;;;;;8.95;3.02;;;;;;;35.70;26.68;100693.80;1686551;82;21511;-63
2021/07/27 06:42:08;;;;;;;7.25;3.60;;;;;;;35.88;26.93;100687.54;1689737;82;21546;-63
2021/07/27 06:44:35;;;;;;;6.85;3.02;;;;;;;36.20;25.74;100680.31;1692320;82;21101;-63
2021/07/27 06:47:02;;;;;;;8.35;3.27;;;;;;;36.21;25.60;100685.17;1691910;82;21096;-63
2021/07/27 06:49:29;;;;;;;8.08;3.47;;;;;;;36.25;25.56;100684.13;1690207;82;21603;-62
2021/07/27 06:51:55;;;;;;;8.18;3.00;;;;;;;36.17;24.83;100685.64;1690234;82;21132;-62
2021/07/27 06:54:22;;;;;;;6.47;3.25;;;;;;;35.99;26.37;100691.92;1690597;82;21006;-63
2021/07/27 06:56:48;;;;;;;8.63;4.12;;;;;;;36.06;25.87;100680.70;1689796;82;21028;-62
2021/07/27 06:59:15;;;;;;;8.28;3.22;;;;;;;35.93;25.42;100683.22;1689687;82;21710;-62
2021/07/27 07:01:42;;;;;;;6.70;3.70;;;;;;;36.00;25.31;100672.60;1689789;82;21035;-62
2021/07/27 07:04:08;;;;;;;7.65;3.65;;;;;;;35.83;25.67;100680.41;1714774;82;21170;-62
2021/07/27 07:06:35;;;;;;;10.75;3.40;;;;;;;35.69;25.78;100680.02;1712984;82;21092;-62
2021/07/27 07:09:02;;;;;;;9.68;3.27;;;;;;;35.63;26.09;100675.16;1711089;82;21594;-62
2021/07/27 07:11:29;;;;;;;6.97;3.52;;;;;;;35.82;25.65;100678.05;1714930;83;21059;-62
2021/07/27 07:13:55;;;;;;;11.05;3.70;;;;;;;35.95;25.86;100678.25;1713834;82;21345;-62
2021/07/27 07:16:22;;;;;;;14.07;3.60;;;;;;;36.19;25.33;100667.88;1712844;82;21142;-62
2021/07/27 07:18:49;;;;;;;6.42;2.75;;;;;;;36.15;24.96;100673.00;1712172;83;21128;-63
2021/07/27 07:21:16;;;;;;;6.33;2.98;;;;;;;35.90;24.51;100674.41;1715336;82;20974;-63
2021/07/27 07:23:43;;;;;;;9.28;3.17;;;;;;;35.70;24.94;100665.31;1711066;81;21117;-61
2021/07/27 07:26:10;;;;;;;10.75;3.83;;;;;;;35.78;25.14;100660.89;1710707;83;21139;-63
2021/07/27 07:28:37;;;;;;;7.90;3.08;;;;;;;35.98;25.17;100669.43;1711072;82;21109;-61
2021/07/27 07:31:04;;;;;;;10.45;4.00;;;;;;;36.09;25.08;100660.80;1712935;82;20995;-61
2021/07/27 07:33:30;;;;;;;9.40;3.50;;;;;;;36.22;25.27;100654.20;1711962;83;21585;-61
2021/07/27 07:35:59;;;;;;;13.00;4.40;;;;;;;36.51;24.59;100656.53;1713534;82;21004;-63
2021/07/27 07:38:25;;;;;;;15.00;4.45;;;;;;;36.82;24.94;100662.33;1709082;82;21786;-62
2021/07/27 07:40:52;;;;;;;14.85;5.22;;;;;;;36.92;24.10;100650.36;1711643;83;22374;-62
2021/07/27 07:43:18;;;;;;;19.67;6.08;;;;;;;36.99;24.02;100656.00;1710611;83;20984;-61
2021/07/27 07:45:46;;;;;;;13.83;4.58;;;;;;;37.00;23.33;100653.49;1710101;83;20960;-62
2021/07/27 07:48:12;;;;;;;8.80;3.50;;;;;;;37.11;23.67;100650.24;1710900;83;21020;-63
2021/07/27 07:50:38;;;;;;;6.30;2.95;;;;;;;37.11;23.58;100650.24;1708830;81;21528;-61
2021/07/27 07:53:05;;;;;;;4.90;3.17;;;;;;;37.25;23.42;100657.37;1712003;82;21811;-62
2021/07/27 07:55:33;;;;;;;4.22;2.33;;;;;;;37.37;23.88;100642.30;1710143;82;21072;-62
2021/07/27 07:58:01;;;;;;;3.42;2.47;;;;;;;37.36;22.76;100646.16;1711502;83;21063;-63
2021/07/27 08:00:28;;;;;;;4.78;2.65;;;;;;;36.92;23.66;100638.14;1707761;82;21096;-61
2021/07/27 08:02:54;;;;;;;5.40;2.40;;;;;;;36.89;24.28;100642.91;1695901;83;21076;-63
2021/07/27 08:05:21;;;;;;;5.60;2.90;;;;;;;37.10;23.54;100641.88;1678671;82;21141;-62
2021/07/27 08:07:48;;;;;;;3.95;2.45;;;;;;;37.07;24.31;100633.06;1678301;82;21061;-62
2021/07/27 08:10:15;;;;;;;5.00;2.60;;;;;;;37.11;23.89;100639.38;1679643;82;21514;-62
2021/07/27 08:12:43;;;;;;;4.05;2.70;;;;;;;37.17;23.76;100640.69;1676933;82;21114;-64
2021/07/27 08:15:10;;;;;;;5.50;2.80;;;;;;;36.99;23.97;100641.63;1681051;82;21138;-61
2021/07/27 08:17:39;;;;;;;4.62;2.45;;;;;;;36.89;24.56;100630.68;1677437;82;21122;-59
2021/07/27 08:20:07;;;;;;;5.17;2.40;;;;;;;37.21;25.35;100632.04;1681001;82;21004;-60
2021/07/27 08:22:41;;;;;;;6.65;2.50;;;;;;;37.61;22.95;100633.68;1677424;82;21023;-60
2021/07/27 08:25:20;;;;;;;3.47;2.27;;;;;;;37.64;22.79;100626.95;1678818;82;21106;-60
2021/07/27 08:27:38;;;;;;;6.53;2.90;;;;;;;37.56;23.21;100624.45;1676619;84;21113;-59
2021/07/27 08:30:06;;;;;;;4.22;2.65;;;;;;;37.55;23.21;100624.25;1679286;82;21129;-60
2021/07/27 08:32:33;;;;;;;5.03;2.37;;;;;;;37.57;23.04;100621.94;1676342;82;20920;-59
2021/07/27 08:34:59;;;;;;;4.70;2.45;;;;;;;37.44;23.70;100620.72;1676036;82;21121;-60
2021/07/27 08:37:27;;;;;;;5.28;2.87;;;;;;;37.29;24.29;100613.37;1682625;82;21031;-60
2021/07/27 08:39:59;;;;;;;4.87;2.40;;;;;;;37.58;24.32;100622.16;1680527;82;21035;-59
2021/07/27 08:42:27;;;;;;;5.22;3.05;;;;;;;37.85;24.49;100618.45;1679725;82;21439;-60
2021/07/27 08:44:53;;;;;;;3.77;2.05;;;;;;;38.00;24.91;100613.28;1676353;82;21591;-59
2021/07/27 08:47:20;;;;;;;4.67;2.85;;;;;;;37.95;23.55;100615.73;1633728;82;20948;-60
2021/07/27 08:49:48;;;;;;;6.22;2.83;;;;;;;37.83;24.38;100612.56;1682611;82;21019;-60
2021/07/27 08:52:15;;;;;;;5.50;2.50;;;;;;;38.30;23.58;100612.89;1679973;82;20939;-60
2021/07/27 08:54:47;;;;;;;3.42;2.60;;;;;;;38.65;24.29;100618.73;1674469;82;21710;-60
2021/07/27 08:57:13;;;;;;;3.83;2.60;;;;;;;38.72;23.35;100607.95;1679849;82;21148;-60
2021/07/27 08:59:41;;;;;;;7.55;2.55;;;;;;;38.56;22.66;100612.73;1678173;82;21620;-60
2021/07/27 09:02:07;;;;;;;4.97;2.27;;;;;;;38.60;23.12;100614.94;1677935;82;21040;-60
2021/07/27 09:04:34;;;;;;;6.00;2.62;;;;;;;38.72;22.47;100604.42;1683030;82;21031;-60
2021/07/27 09:07:04;;;;;;;4.97;2.10;;;;;;;38.55;22.58;100607.88;1682492;82;21011;-60
2021/07/27 09:09:35;;;;;;;3.30;2.27;;;;;;;38.39;22.57;100607.22;1681448;82;21014;-59
2021/07/27 09:12:06;;;;;;;4.17;2.65;;;;;;;38.27;22.24;100607.38;1684735;82;21071;-59
2021/07/27 09:14:32;;;;;;;3.40;2.50;;;;;;;38.03;22.96;100601.10;1683859;82;21086;-60
2021/07/27 09:16:59;;;;;;;6.62;2.90;;;;;;;37.90;23.70;100600.48;1680304;82;21025;-60
2021/07/27 09:19:25;;;;;;;4.35;2.30;;;;;;;38.14;23.04;100596.64;1677818;82;21155;-59
2021/07/27 09:22:06;;;;;;;3.83;2.72;;;;;;;38.16;22.50;100599.02;1682374;82;21082;-61
2021/07/27 09:24:33;;;;;;;;;;;;;;;38.10;23.38;100593.06;1684762;82;21142;-61
2021/07/27 09:27:05;;;;;;;4.85;2.40;;;;;;;38.30;22.48;100593.83;1683257;82;20477;-61
2021/07/27 09:29:44;;;;;;;4.62;2.70;;;;;;;38.24;22.81;100595.27;1684384;82;21019;-61
2021/07/27 09:32:22;;;;;;;6.05;2.35;;;;;;;38.21;22.96;100591.90;1682561;82;22328;-61
2021/07/27 09:34:50;;;;;;;3.00;2.37;;;;;;;38.24;22.92;100592.55;1683772;82;21042;-60
2021/07/27 09:37:18;;;;;;;3.95;2.52;;;;;;;38.01;22.68;100590.38;1683240;82;21101;-61
2021/07/27 09:39:44;;;;;;;3.22;2.47;;;;;;;37.86;22.35;100595.52;1685974;82;21071;-61
2021/07/27 09:42:11;;;;;;;6.45;2.50;;;;;;;37.81;22.42;100595.83;1681897;82;21085;-61
2021/07/27 09:44:39;;;;;;;3.65;2.80;;;;;;;37.78;22.62;100593.81;1683648;82;21071;-61
2021/07/27 09:47:06;;;;;;;6.15;2.50;;;;;;;37.90;22.43;100588.24;1680022;82;21337;-60
2021/07/27 09:49:32;;;;;;;3.85;2.55;;;;;;;38.01;22.23;100586.30;1682418;82;21633;-60
2021/07/27 09:52:00;;;;;;;4.00;2.50;;;;;;;37.98;22.22;100581.77;1678423;82;21122;-61
2021/07/27 09:54:27;;;;;;;4.30;2.20;;;;;;;38.16;22.13;100578.59;1678803;82;21070;-60
2021/07/27 09:56:54;;;;;;;5.85;2.83;;;;;;;38.25;22.06;100576.98;1676935;82;21067;-60
2021/07/27 09:59:25;;;;;;;5.12;3.10;;;;;;;38.44;21.72;100579.09;1681448;82;21097;-60
2021/07/27 10:02:04;;;;;;;3.92;2.67;;;;;;;38.30;21.44;100578.84;1678818;82;21090;-60
2021/07/27 10:04:42;;;;;;;6.20;3.00;;;;;;;38.30;22.41;100582.94;1678321;82;21030;-61
2021/07/27 10:07:09;;;;;;;5.45;3.20;;;;;;;38.56;22.44;100574.60;1677761;82;21110;-60
2021/07/27 10:09:36;;;;;;;6.47;3.70;;;;;;;38.71;21.34;100577.75;1677177;82;21216;-60
2021/07/27 10:12:13;;;;;;;3.72;2.67;;;;;;;38.70;20.95;100570.74;1678857;82;21507;-60
2021/07/27 10:14:44;;;;;;;4.90;3.20;;;;;;;38.67;21.71;100570.89;1674108;82;21122;-61
2021/07/27 10:17:14;;;;;;;5.03;2.60;;;;;;;38.73;21.75;100571.38;1682014;82;21165;-60
2021/07/27 10:19:46;;;;;;;7.53;3.02;;;;;;;38.77;20.81;100580.39;1675850;82;25307;-60
2021/07/27 10:22:15;;;;;;;7.35;3.15;;;;;;;38.50;21.17;100567.91;1680272;82;21139;-60
2021/07/27 10:24:46;;;;;;;6.37;3.12;;;;;;;38.32;21.31;100579.84;1673912;83;21588;-62
2021/07/27 10:27:25;;;;;;;7.58;3.30;;;;;;;38.18;21.15;100572.20;1679072;82;21047;-62
2021/07/27 10:29:52;;;;;;;7.35;3.17;;;;;;;38.15;21.67;100582.45;1676843;82;21107;-61
2021/07/27 10:32:23;;;;;;;6.12;2.75;;;;;;;38.17;21.12;100569.27;1677613;82;20884;-61
2021/07/27 10:34:52;;;;;;;6.97;3.17;;;;;;;38.27;21.30;100569.26;1678350;82;22559;-61
2021/07/27 10:37:18;;;;;;;4.08;2.65;;;;;;;38.45;20.83;100556.72;1678651;82;21078;-61
2021/07/27 10:39:59;;;;;;;9.78;3.33;;;;;;;38.52;21.36;100559.56;1678160;82;21514;-62
2021/07/27 10:42:39;;;;;;;8.35;3.40;;;;;;;38.58;21.15;100564.14;1684490;82;21111;-61
2021/07/27 10:45:17;;;;;;;7.90;2.85;;;;;;;38.65;20.56;100557.44;1683590;82;21615;-61
2021/07/27 10:47:53;;;;;;;6.67;3.27;;;;;;;38.63;21.32;100560.52;1680481;82;21151;-60
2021/07/27 10:50:32;;;;;;;6.47;3.30;;;;;;;38.76;20.54;100543.40;1684002;82;21078;-62
2021/07/27 10:53:06;;;;;;;4.67;3.00;;;;;;;39.01;20.74;100547.06;1683163;82;21099;-61
2021/07/27 10:55:33;;;;;;;4.62;2.50;;;;;;;39.16;20.73;100551.55;1682908;82;20975;-61
2021/07/27 10:58:02;;;;;;;5.22;2.58;;;;;;;39.14;19.66;100543.75;1692092;82;21626;-61
2021/07/27 11:00:32;;;;;;;3.80;2.58;;;;;;;38.99;20.77;100552.11;1692547;82;21122;-61
2021/07/27 11:02:58;;;;;;;4.93;2.67;;;;;;;38.96;20.77;100544.09;1693784;82;21038;-62
2021/07/27 11:05:26;;;;;;;4.37;2.40;;;;;;;39.06;20.68;100541.28;1693446;82;21492;-61
2021/07/27 11:07:55;;;;;;;4.55;2.10;;;;;;;38.86;20.66;100537.91;1689917;82;21034;-63
2021/07/27 11:10:25;;;;;;;6.62;2.50;;;;;;;38.07;21.67;100536.63;1690861;82;21129;-63
2021/07/27 11:12:52;;;;;;;3.37;2.40;;;;;;;38.10;21.88;100533.18;1690941;82;21185;-63
2021/07/27 11:15:27;;;;;;;4.25;2.33;;;;;;;37.53;22.23;100538.13;1689967;82;21003;-62
2021/07/27 11:18:01;;;;;;;5.87;2.80;;;;;;;37.64;23.00;100535.83;1687838;82;21037;-62
2021/07/27 11:20:35;;;;;;;5.60;2.70;;;;;;;37.31;22.94;100524.07;1690746;82;21666;-62
2021/07/27 11:23:09;;;;;;;7.03;2.62;;;;;;;37.42;21.42;100528.40;1689920;82;21142;-62
2021/07/27 11:25:35;;;;;;;4.28;2.62;;;;;;;37.38;21.70;100532.37;1669316;83;21205;-62
2021/07/27 11:28:12;;;;;;;3.83;2.85;;;;;;;37.94;23.05;100531.16;1689519;82;21015;-63
2021/07/27 11:30:40;;;;;;;4.40;2.85;;;;;;;38.06;22.52;100520.09;1690167;82;21046;-62
2021/07/27 11:33:23;;;;;;;5.78;2.40;;;;;;;38.02;22.84;100523.91;1687970;82;21145;-63
2021/07/27 11:35:49;;;;;;;4.65;2.70;;;;;;;37.98;22.24;100522.48;1689580;82;21019;-64
2021/07/27 11:38:23;;;;;;;4.92;2.45;;;;;;;37.96;22.65;100520.13;1689821;82;21134;-64
2021/07/27 11:40:51;;;;;;;3.98;2.60;;;;;;;37.70;23.05;100514.58;1686886;82;21023;-63
2021/07/27 11:43:18;;;;;;;4.00;2.37;;;;;;;37.54;23.24;100520.09;1690365;82;21545;-63
2021/07/27 11:45:45;;;;;;;4.55;2.77;;;;;;;37.21;22.94;100519.23;1663997;84;21508;-64
2021/07/27 11:48:12;;;;;;;5.58;2.70;;;;;;;37.27;23.53;100512.34;1695991;82;21073;-62